sensor_id;sensor_type;location;lat;lon;timestamp;temperature;humidity
16728;DHT22;8482;54.396;18.590;2023-01-29T10:59:19;5.80;99.90
16728;DHT22;8482;54.396;18.590;2023-01-29T11:01:58;5.80;99.90
16728;DHT22;8482;54.396;18.590;2023-01-29T11:04:26;5.80;99.90
16728;DHT22;8482;54.396;18.590;2023-01-29T11:06:53;5.80;99.90
16728;DHT22;8482;54.396;18.590;2023-01-29T11:09:27;5.80;99.90
16728;DHT22;8482;54.396;18.590;2023-01-29T11:15:24;5.90;99.90
16728;DHT22;8482;54.396;18.590;2023-01-29T11:18:23;5.90;99.90
16728;DHT22;8482;54.396;18.590;2023-01-29T11:21:03;6.00;99.90
16728;DHT22;8482;54.396;18.590;2023-01-29T11:23:31;6.00;99.90
16728;DHT22;8482;54.396;18.590;2023-01-29T11:25:59;6.00;99.90
16728;DHT22;8482;54.396;18.590;2023-01-29T11:28:39;6.10;99.90
16728;DHT22;8482;54.396;18.590;2023-01-29T11:31:33;6.10;99.90
16728;DHT22;8482;54.396;18.590;2023-01-29T11:34:24;6.10;99.90
16728;DHT22;8482;54.396;18.590;2023-01-29T11:37:14;6.10;99.90
16728;DHT22;8482;54.396;18.590;2023-01-29T11:39:45;6.10;99.90
16728;DHT22;8482;54.396;18.590;2023-01-29T11:42:19;6.20;99.90
16728;DHT22;8482;54.396;18.590;2023-01-29T11:44:46;6.20;99.90
16728;DHT22;8482;54.396;18.590;2023-01-29T11:49:56;6.20;99.90
16728;DHT22;8482;54.396;18.590;2023-01-29T11:52:36;6.20;99.90
16728;DHT22;8482;54.396;18.590;2023-01-29T11:55:22;6.10;99.90
16728;DHT22;8482;54.396;18.590;2023-01-29T11:58:20;6.10;99.90
16728;DHT22;8482;54.396;18.590;2023-01-29T12:00:52;6.10;99.90
16728;DHT22;8482;54.396;18.590;2023-01-29T12:03:48;6.10;99.90
16728;DHT22;8482;54.396;18.590;2023-01-29T12:06:31;6.10;99.90
16728;DHT22;8482;54.396;18.590;2023-01-29T12:09:02;6.10;99.90
16728;DHT22;8482;54.396;18.590;2023-01-29T12:11:35;6.10;99.90
16728;DHT22;8482;54.396;18.590;2023-01-29T12:14:04;6.10;99.90
16728;DHT22;8482;54.396;18.590;2023-01-29T12:16:55;6.10;99.90
16728;DHT22;8482;54.396;18.590;2023-01-29T12:19:47;6.10;99.90
16728;DHT22;8482;54.396;18.590;2023-01-29T12:28:35;6.10;99.90
16728;DHT22;8482;54.396;18.590;2023-01-29T12:31:26;6.20;99.90
16728;DHT22;8482;54.396;18.590;2023-01-29T12:37:39;6.20;99.90
16728;DHT22;8482;54.396;18.590;2023-01-29T12:40:11;6.20;99.90
16728;DHT22;8482;54.396;18.590;2023-01-29T12:42:40;6.20;99.90
16728;DHT22;8482;54.396;18.590;2023-01-29T12:45:17;6.20;99.90
16728;DHT22;8482;54.396;18.590;2023-01-29T12:47:52;6.20;99.90
16728;DHT22;8482;54.396;18.590;2023-01-29T12:50:42;6.20;99.90
16728;DHT22;8482;54.396;18.590;2023-01-29T12:53:29;6.20;99.90
16728;DHT22;8482;54.396;18.590;2023-01-29T12:56:10;6.20;99.90
16728;DHT22;8482;54.396;18.590;2023-01-29T12:58:49;6.30;99.90
16728;DHT22;8482;54.396;18.590;2023-01-29T13:01:39;6.30;99.90
16728;DHT22;8482;54.396;18.590;2023-01-29T13:04:47;6.30;99.90
16728;DHT22;8482;54.396;18.590;2023-01-29T13:07:42;6.30;99.90
16728;DHT22;8482;54.396;18.590;2023-01-29T13:10:17;6.40;99.90
16728;DHT22;8482;54.396;18.590;2023-01-29T13:12:56;6.40;99.90
16728;DHT22;8482;54.396;18.590;2023-01-29T13:15:35;6.40;99.90
16728;DHT22;8482;54.396;18.590;2023-01-29T13:18:34;6.30;99.90
16728;DHT22;8482;54.396;18.590;2023-01-29T13:21:03;6.30;99.90
16728;DHT22;8482;54.396;18.590;2023-01-29T13:23:33;6.30;99.90
16728;DHT22;8482;54.396;18.590;2023-01-29T13:26:02;6.40;99.90
16728;DHT22;8482;54.396;18.590;2023-01-29T13:28:30;6.40;99.90
16728;DHT22;8482;54.396;18.590;2023-01-29T13:31:29;6.40;99.90
16728;DHT22;8482;54.396;18.590;2023-01-29T13:34:30;6.40;99.90
16728;DHT22;8482;54.396;18.590;2023-01-29T13:37:11;6.40;99.90
16728;DHT22;8482;54.396;18.590;2023-01-29T13:40:04;6.40;99.90
16728;DHT22;8482;54.396;18.590;2023-01-29T13:42:42;6.40;99.90
16728;DHT22;8482;54.396;18.590;2023-01-29T13:48:09;6.30;99.90
16728;DHT22;8482;54.396;18.590;2023-01-29T13:50:50;6.20;99.90
16728;DHT22;8482;54.396;18.590;2023-01-29T13:53:36;6.20;99.90
16728;DHT22;8482;54.396;18.590;2023-01-29T13:59:01;6.30;99.90
16728;DHT22;8482;54.396;18.590;2023-01-29T14:10:19;6.50;99.90
16728;DHT22;8482;54.396;18.590;2023-01-29T14:15:36;6.50;99.90
16728;DHT22;8482;54.396;18.590;2023-01-29T14:34:44;6.70;99.90
16728;DHT22;8482;54.396;18.590;2023-01-29T14:39:47;6.60;99.90
16728;DHT22;8482;54.396;18.590;2023-01-29T14:45:26;6.60;99.90
16728;DHT22;8482;54.396;18.590;2023-01-29T14:47:59;6.50;99.90
16728;DHT22;8482;54.396;18.590;2023-01-29T14:56:20;6.50;99.90
16728;DHT22;8482;54.396;18.590;2023-01-29T14:59:19;6.40;99.90
16728;DHT22;8482;54.396;18.590;2023-01-29T15:01:55;6.40;99.90
16728;DHT22;8482;54.396;18.590;2023-01-29T15:18:32;6.20;99.90
16728;DHT22;8482;54.396;18.590;2023-01-29T15:21:10;6.20;99.90
16728;DHT22;8482;54.396;18.590;2023-01-29T15:23:38;6.20;99.90
16728;DHT22;8482;54.396;18.590;2023-01-29T15:26:07;6.20;99.90
16728;DHT22;8482;54.396;18.590;2023-01-29T15:28:40;6.20;99.90
16728;DHT22;8482;54.396;18.590;2023-01-29T15:31:11;6.20;99.90
16728;DHT22;8482;54.396;18.590;2023-01-29T15:33:44;6.20;99.90
16728;DHT22;8482;54.396;18.590;2023-01-29T15:36:22;6.20;99.90
16728;DHT22;8482;54.396;18.590;2023-01-29T15:39:16;6.20;99.90
16728;DHT22;8482;54.396;18.590;2023-01-29T15:41:45;6.20;99.90
16728;DHT22;8482;54.396;18.590;2023-01-29T15:44:21;6.20;99.90
16728;DHT22;8482;54.396;18.590;2023-01-29T15:46:54;6.20;99.90
16728;DHT22;8482;54.396;18.590;2023-01-29T15:49:32;6.20;99.90
16728;DHT22;8482;54.396;18.590;2023-01-29T15:52:14;6.20;99.90
16728;DHT22;8482;54.396;18.590;2023-01-29T15:54:44;6.20;99.90
16728;DHT22;8482;54.396;18.590;2023-01-29T15:57:19;6.20;99.90
16728;DHT22;8482;54.396;18.590;2023-01-29T15:59:53;6.20;99.90
16728;DHT22;8482;54.396;18.590;2023-01-29T16:02:37;6.20;99.90
16728;DHT22;8482;54.396;18.590;2023-01-29T16:05:14;6.20;99.90
16728;DHT22;8482;54.396;18.590;2023-01-29T16:07:43;6.20;99.90
16728;DHT22;8482;54.396;18.590;2023-01-29T16:10:18;6.20;99.90
16728;DHT22;8482;54.396;18.590;2023-01-29T16:12:48;6.20;99.90
16728;DHT22;8482;54.396;18.590;2023-01-29T16:15:36;6.20;99.90
16728;DHT22;8482;54.396;18.590;2023-01-29T16:18:19;6.20;99.90
16728;DHT22;8482;54.396;18.590;2023-01-29T16:20:52;6.20;99.90
16728;DHT22;8482;54.396;18.590;2023-01-29T16:23:30;6.20;99.90
16728;DHT22;8482;54.396;18.590;2023-01-29T16:26:06;6.20;99.90
16728;DHT22;8482;54.396;18.590;2023-01-29T16:28:44;6.10;99.90
16728;DHT22;8482;54.396;18.590;2023-01-29T16:31:11;6.10;99.90
16728;DHT22;8482;54.396;18.590;2023-01-29T16:33:45;6.10;99.90
16728;DHT22;8482;54.396;18.590;2023-01-29T16:36:24;6.10;99.90
16728;DHT22;8482;54.396;18.590;2023-01-29T16:38:58;6.10;99.90
16728;DHT22;8482;54.396;18.590;2023-01-29T16:41:31;6.10;99.90
16728;DHT22;8482;54.396;18.590;2023-01-29T16:46:47;6.10;99.90
16728;DHT22;8482;54.396;18.590;2023-01-29T16:51:52;6.10;99.90
16728;DHT22;8482;54.396;18.590;2023-01-29T16:54:23;6.10;99.90
16728;DHT22;8482;54.396;18.590;2023-01-29T16:56:53;6.10;99.90
16728;DHT22;8482;54.396;18.590;2023-01-29T16:59:32;6.10;99.90
16728;DHT22;8482;54.396;18.590;2023-01-29T17:02:18;6.10;99.90
16728;DHT22;8482;54.396;18.590;2023-01-29T17:05:04;6.10;99.90
16728;DHT22;8482;54.396;18.590;2023-01-29T17:07:35;6.10;99.90
16728;DHT22;8482;54.396;18.590;2023-01-29T17:10:04;6.10;99.90
16728;DHT22;8482;54.396;18.590;2023-01-29T17:12:32;6.10;99.90
16728;DHT22;8482;54.396;18.590;2023-01-29T17:15:01;6.10;99.90
16728;DHT22;8482;54.396;18.590;2023-01-29T17:17:34;6.10;99.90
16728;DHT22;8482;54.396;18.590;2023-01-29T17:20:12;6.10;99.90
16728;DHT22;8482;54.396;18.590;2023-01-29T17:22:41;6.10;99.90
16728;DHT22;8482;54.396;18.590;2023-01-29T17:25:11;6.10;99.90
16728;DHT22;8482;54.396;18.590;2023-01-29T17:27:40;6.10;99.90
16728;DHT22;8482;54.396;18.590;2023-01-29T17:30:15;6.00;99.90
16728;DHT22;8482;54.396;18.590;2023-01-29T17:32:42;6.00;99.90
16728;DHT22;8482;54.396;18.590;2023-01-29T17:35:11;6.10;99.90
16728;DHT22;8482;54.396;18.590;2023-01-29T17:37:41;6.10;99.90
16728;DHT22;8482;54.396;18.590;2023-01-29T17:43:12;6.10;99.90
16728;DHT22;8482;54.396;18.590;2023-01-29T17:45:38;6.10;99.90
16728;DHT22;8482;54.396;18.590;2023-01-29T17:48:25;6.10;99.90
16728;DHT22;8482;54.396;18.590;2023-01-29T17:50:55;6.10;99.90
16728;DHT22;8482;54.396;18.590;2023-01-29T17:53:23;6.10;99.90
16728;DHT22;8482;54.396;18.590;2023-01-29T17:55:49;6.10;99.90
16728;DHT22;8482;54.396;18.590;2023-01-29T17:58:24;6.20;99.90
16728;DHT22;8482;54.396;18.590;2023-01-29T18:00:52;6.20;99.90
16728;DHT22;8482;54.396;18.590;2023-01-29T18:03:20;6.20;99.90
16728;DHT22;8482;54.396;18.590;2023-01-29T18:05:47;6.20;99.90
16728;DHT22;8482;54.396;18.590;2023-01-29T18:08:16;6.20;99.90
16728;DHT22;8482;54.396;18.590;2023-01-29T18:10:50;6.20;99.90
16728;DHT22;8482;54.396;18.590;2023-01-29T18:13:16;6.20;99.90
16728;DHT22;8482;54.396;18.590;2023-01-29T18:15:42;6.10;99.90
16728;DHT22;8482;54.396;18.590;2023-01-29T18:18:13;6.10;99.90
16728;DHT22;8482;54.396;18.590;2023-01-29T18:20:40;6.10;99.90
16728;DHT22;8482;54.396;18.590;2023-01-29T18:23:10;6.10;99.90
16728;DHT22;8482;54.396;18.590;2023-01-29T18:25:36;6.10;99.90
16728;DHT22;8482;54.396;18.590;2023-01-29T18:28:04;6.20;99.90
16728;DHT22;8482;54.396;18.590;2023-01-29T18:30:30;6.10;99.90
16728;DHT22;8482;54.396;18.590;2023-01-29T18:32:57;6.20;99.90
16728;DHT22;8482;54.396;18.590;2023-01-29T18:35:24;6.10;99.90
16728;DHT22;8482;54.396;18.590;2023-01-29T18:37:51;6.10;99.90
16728;DHT22;8482;54.396;18.590;2023-01-29T18:40:17;6.20;99.90
16728;DHT22;8482;54.396;18.590;2023-01-29T18:42:44;6.10;99.90
16728;DHT22;8482;54.396;18.590;2023-01-29T18:45:12;6.20;99.90
16728;DHT22;8482;54.396;18.590;2023-01-29T18:47:39;6.20;99.90
16728;DHT22;8482;54.396;18.590;2023-01-29T18:50:06;6.20;99.90
16728;DHT22;8482;54.396;18.590;2023-01-29T18:52:33;6.20;99.90
16728;DHT22;8482;54.396;18.590;2023-01-29T18:54:59;6.20;99.90
16728;DHT22;8482;54.396;18.590;2023-01-29T18:57:26;6.20;99.90
16728;DHT22;8482;54.396;18.590;2023-01-29T18:59:52;6.20;99.90
16728;DHT22;8482;54.396;18.590;2023-01-29T19:02:18;6.20;99.90
16728;DHT22;8482;54.396;18.590;2023-01-29T19:04:44;6.30;99.90
16728;DHT22;8482;54.396;18.590;2023-01-29T19:07:12;6.20;99.90
16728;DHT22;8482;54.396;18.590;2023-01-29T19:09:39;6.30;99.90
16728;DHT22;8482;54.396;18.590;2023-01-29T19:12:05;6.30;99.90
16728;DHT22;8482;54.396;18.590;2023-01-29T19:14:32;6.30;99.90
16728;DHT22;8482;54.396;18.590;2023-01-29T19:16:59;6.30;99.90
16728;DHT22;8482;54.396;18.590;2023-01-29T19:19:26;6.30;99.90
16728;DHT22;8482;54.396;18.590;2023-01-29T19:21:53;6.30;99.90
16728;DHT22;8482;54.396;18.590;2023-01-29T19:24:20;6.30;99.90
16728;DHT22;8482;54.396;18.590;2023-01-29T19:26:46;6.30;99.90
16728;DHT22;8482;54.396;18.590;2023-01-29T19:29:13;6.30;99.90
16728;DHT22;8482;54.396;18.590;2023-01-29T19:31:39;6.30;99.90
16728;DHT22;8482;54.396;18.590;2023-01-29T19:34:05;6.30;99.90
16728;DHT22;8482;54.396;18.590;2023-01-29T19:36:31;6.30;99.90
16728;DHT22;8482;54.396;18.590;2023-01-29T19:38:56;6.30;99.90
16728;DHT22;8482;54.396;18.590;2023-01-29T19:41:23;6.30;99.90
16728;DHT22;8482;54.396;18.590;2023-01-29T19:43:49;6.30;99.90
16728;DHT22;8482;54.396;18.590;2023-01-29T19:46:15;6.30;99.90
16728;DHT22;8482;54.396;18.590;2023-01-29T19:48:41;6.40;99.90
16728;DHT22;8482;54.396;18.590;2023-01-29T19:51:10;6.40;99.90
16728;DHT22;8482;54.396;18.590;2023-01-29T19:53:38;6.40;99.90
16728;DHT22;8482;54.396;18.590;2023-01-29T19:56:14;6.40;99.90
16728;DHT22;8482;54.396;18.590;2023-01-29T19:58:41;6.30;99.90
16728;DHT22;8482;54.396;18.590;2023-01-29T20:01:19;6.30;99.90
16728;DHT22;8482;54.396;18.590;2023-01-29T20:03:48;6.30;99.90
16728;DHT22;8482;54.396;18.590;2023-01-29T20:06:16;6.30;99.90
16728;DHT22;8482;54.396;18.590;2023-01-29T20:08:44;6.30;99.90
16728;DHT22;8482;54.396;18.590;2023-01-29T20:11:15;6.20;99.90
16728;DHT22;8482;54.396;18.590;2023-01-29T20:13:46;6.20;99.90
16728;DHT22;8482;54.396;18.590;2023-01-29T20:16:14;6.10;99.90
16728;DHT22;8482;54.396;18.590;2023-01-29T20:18:40;6.10;99.90
16728;DHT22;8482;54.396;18.590;2023-01-29T20:21:09;6.10;99.90
16728;DHT22;8482;54.396;18.590;2023-01-29T20:23:37;6.10;99.90
16728;DHT22;8482;54.396;18.590;2023-01-29T20:26:05;6.10;99.90
16728;DHT22;8482;54.396;18.590;2023-01-29T20:28:33;6.10;99.90
16728;DHT22;8482;54.396;18.590;2023-01-29T20:30:59;6.10;99.90
16728;DHT22;8482;54.396;18.590;2023-01-29T20:33:25;6.10;99.90
16728;DHT22;8482;54.396;18.590;2023-01-29T20:35:56;6.10;99.90
16728;DHT22;8482;54.396;18.590;2023-01-29T20:38:24;6.10;99.90
16728;DHT22;8482;54.396;18.590;2023-01-29T20:41:04;6.10;99.90
16728;DHT22;8482;54.396;18.590;2023-01-29T20:43:32;6.10;99.90
16728;DHT22;8482;54.396;18.590;2023-01-29T20:45:58;6.10;99.90
16728;DHT22;8482;54.396;18.590;2023-01-29T20:48:24;6.10;99.90
16728;DHT22;8482;54.396;18.590;2023-01-29T20:50:51;6.00;99.90
16728;DHT22;8482;54.396;18.590;2023-01-29T20:53:17;6.00;99.90
16728;DHT22;8482;54.396;18.590;2023-01-29T20:55:44;6.00;99.90
16728;DHT22;8482;54.396;18.590;2023-01-29T20:58:10;6.00;99.90
16728;DHT22;8482;54.396;18.590;2023-01-29T21:00:36;6.00;99.90
16728;DHT22;8482;54.396;18.590;2023-01-29T21:03:03;5.90;99.90
16728;DHT22;8482;54.396;18.590;2023-01-29T21:05:29;5.90;99.90
16728;DHT22;8482;54.396;18.590;2023-01-29T21:07:57;5.90;99.90
16728;DHT22;8482;54.396;18.590;2023-01-29T21:10:23;5.90;99.90
16728;DHT22;8482;54.396;18.590;2023-01-29T21:12:49;5.80;99.90
16728;DHT22;8482;54.396;18.590;2023-01-29T21:15:15;5.80;99.90
16728;DHT22;8482;54.396;18.590;2023-01-29T21:17:41;5.80;99.90
16728;DHT22;8482;54.396;18.590;2023-01-29T21:20:07;5.70;99.90
16728;DHT22;8482;54.396;18.590;2023-01-29T21:22:34;5.70;99.90
16728;DHT22;8482;54.396;18.590;2023-01-29T21:25:00;5.70;99.90
16728;DHT22;8482;54.396;18.590;2023-01-29T21:27:26;5.70;99.90
16728;DHT22;8482;54.396;18.590;2023-01-29T21:29:51;5.70;99.90
16728;DHT22;8482;54.396;18.590;2023-01-29T21:32:17;5.60;99.90
16728;DHT22;8482;54.396;18.590;2023-01-29T21:34:43;5.60;99.90
16728;DHT22;8482;54.396;18.590;2023-01-29T21:37:09;5.70;99.90
16728;DHT22;8482;54.396;18.590;2023-01-29T21:39:35;5.70;99.90
16728;DHT22;8482;54.396;18.590;2023-01-29T21:42:01;5.70;99.90
16728;DHT22;8482;54.396;18.590;2023-01-29T21:44:45;5.70;99.90
16728;DHT22;8482;54.396;18.590;2023-01-29T21:47:11;5.70;99.90
16728;DHT22;8482;54.396;18.590;2023-01-29T21:49:45;5.70;99.90
16728;DHT22;8482;54.396;18.590;2023-01-29T21:52:12;5.70;99.90
16728;DHT22;8482;54.396;18.590;2023-01-29T21:54:43;5.70;99.90
16728;DHT22;8482;54.396;18.590;2023-01-29T21:57:13;5.70;99.90
16728;DHT22;8482;54.396;18.590;2023-01-29T21:59:41;5.70;99.90
16728;DHT22;8482;54.396;18.590;2023-01-29T22:02:14;5.60;99.90
16728;DHT22;8482;54.396;18.590;2023-01-29T22:04:41;5.60;99.90
16728;DHT22;8482;54.396;18.590;2023-01-29T22:07:08;5.60;99.90
16728;DHT22;8482;54.396;18.590;2023-01-29T22:09:35;5.60;99.90
16728;DHT22;8482;54.396;18.590;2023-01-29T22:12:02;5.60;99.90
16728;DHT22;8482;54.396;18.590;2023-01-29T22:14:29;5.60;99.90
16728;DHT22;8482;54.396;18.590;2023-01-29T22:16:55;5.70;99.90
16728;DHT22;8482;54.396;18.590;2023-01-29T22:19:21;5.60;99.90
16728;DHT22;8482;54.396;18.590;2023-01-29T22:21:48;5.60;99.90
16728;DHT22;8482;54.396;18.590;2023-01-29T22:24:13;5.70;99.90
16728;DHT22;8482;54.396;18.590;2023-01-29T22:26:39;5.60;99.90
16728;DHT22;8482;54.396;18.590;2023-01-29T22:29:05;5.70;99.90
16728;DHT22;8482;54.396;18.590;2023-01-29T22:31:31;5.60;99.90
16728;DHT22;8482;54.396;18.590;2023-01-29T22:33:57;5.70;99.90
16728;DHT22;8482;54.396;18.590;2023-01-29T22:36:22;5.60;99.90
16728;DHT22;8482;54.396;18.590;2023-01-29T22:38:48;5.60;99.90
16728;DHT22;8482;54.396;18.590;2023-01-29T22:41:14;5.60;99.90
16728;DHT22;8482;54.396;18.590;2023-01-29T22:43:40;5.60;99.90
